This is the latest recevied weather packets stored in our database for station/object HB9BTL-13. If no packets are shown the sender has not sent any weather packets the latest 10 day(s).
| Time | Temp. | Humidity | Pressure | Rain* | Wind** | Luminosity | Snow |
|---|---|---|---|---|---|---|---|
| 1788141114 | 19.44° C | 87% | 1017.9 hPa | - | - | - | - |
| 1788140210 | 19.44° C | 88% | 1017.9 hPa | - | - | - | - |
| 1788139304 | 20° C | 88% | 1017.7 hPa | - | - | - | - |
| 1788138398 | 20° C | 88% | 1017.6 hPa | - | - | - | - |
| 1788137494 | 20° C | 88% | 1017.7 hPa | - | - | - | - |
| 1788136588 | 20.56° C | 87% | 1017.7 hPa | - | - | - | - |
| 1788135682 | 20.56° C | 87% | 1017.5 hPa | - | - | - | - |
| 1788134777 | 20.56° C | 87% | 1017.1 hPa | - | - | - | - |
| 1788133872 | 20.56° C | 83% | 1017.7 hPa | - | - | - | - |
| 1788132966 | 21.67° C | 78% | 1016.9 hPa | - | - | - | - |
| 1788132061 | 21.67° C | 77% | 1016 hPa | - | - | - | - |
| 1788131155 | 21.67° C | 77% | 1015.5 hPa | - | - | - | - |
| 1788130250 | 21.11° C | 78% | 1015.3 hPa | - | - | - | - |
| 1788129344 | 21.11° C | 79% | 1015 hPa | - | - | - | - |
| 1788128439 | 21.11° C | 78% | 1015 hPa | - | - | - | - |
| 1788127534 | 21.67° C | 77% | 1015.1 hPa | - | - | - | - |
| 1788126628 | 21.67° C | 78% | 1015.2 hPa | - | - | - | - |
| 1788125723 | 22.22° C | 76% | 1015.3 hPa | - | - | - | - |
| 1788124817 | 21.67° C | 76% | 1015.4 hPa | - | - | - | - |
| 1788123912 | 22.22° C | 73% | 1015.4 hPa | - | - | - | - |
| 1788123007 | 22.22° C | 74% | 1015.5 hPa | - | - | - | - |
| 1788122102 | 22.22° C | 74% | 1015.5 hPa | - | - | - | - |
| 1788121196 | 22.78° C | 73% | 1015.4 hPa | - | - | - | - |
| 1788120290 | 22.78° C | 73% | 1015.3 hPa | - | - | - | - |
| 1788119385 | 23.33° C | 71% | 1015.4 hPa | - | - | - | - |
* Rain since midnight (hover to see other rain measurements)
** Current wind speed in m/s (hover to see current wind gust speed)